Time;durP1;ratioP1;P1;durP2;ratioP2;P2;SDS_P1;SDS_P2;PMS_P1;PMS_P2;Temp;Humidity;BMP_temperature;BMP_pressure;BME280_temperature;BME280_humidity;BME280_pressure;Samples;Min_cycle;Max_cycle;Signal;HPM_P1;HPM_P2
2021/12/27 00:00:27;;;;;;;6.75;4.80;;;8.60;78.60;;;;;;5046955;28;20037;-74
2021/12/27 00:02:56;;;;;;;5.78;4.78;;;8.60;79.10;;;;;;5046138;28;20060;-74
2021/12/27 00:05:22;;;;;;;5.85;4.60;;;8.70;78.70;;;;;;5032875;28;20025;-73
2021/12/27 00:07:50;;;;;;;5.57;4.43;;;8.70;78.80;;;;;;5049058;28;20123;-74
2021/12/27 00:10:18;;;;;;;9.70;5.50;;;8.70;78.80;;;;;;5050025;28;20064;-73
2021/12/27 00:12:44;;;;;;;6.55;4.47;;;8.80;79.00;;;;;;5050604;28;20044;-73
2021/12/27 00:15:11;;;;;;;6.82;5.15;;;8.80;79.00;;;;;;5070027;28;20929;-73
2021/12/27 00:17:39;;;;;;;7.03;4.72;;;8.80;79.00;;;;;;5070490;28;20049;-74
2021/12/27 00:20:10;;;;;;;6.65;4.47;;;8.90;79.20;;;;;;5069029;28;20060;-72
2021/12/27 00:22:37;;;;;;;7.07;4.82;;;8.90;79.20;;;;;;5070701;28;20458;-72
2021/12/27 00:25:05;;;;;;;4.78;4.07;;;8.90;79.20;;;;;;5068822;28;20028;-73
2021/12/27 00:27:31;;;;;;;6.07;4.40;;;8.90;79.20;;;;;;5069929;28;20480;-72
2021/12/27 00:29:57;;;;;;;7.30;4.97;;;8.90;79.20;;;;;;5051613;28;20035;-72
2021/12/27 00:32:23;;;;;;;6.35;4.20;;;9.00;79.30;;;;;;5069676;28;20212;-73
2021/12/27 00:34:49;;;;;;;6.28;4.75;;;9.00;79.80;;;;;;5050597;28;20357;-72
2021/12/27 00:37:15;;;;;;;6.50;4.47;;;9.00;79.30;;;;;;5051107;28;20040;-72
2021/12/27 00:39:41;;;;;;;7.18;4.65;;;9.00;79.30;;;;;;5051441;28;20204;-72
2021/12/27 00:42:07;;;;;;;5.45;4.55;;;9.00;79.40;;;;;;5068963;28;20036;-73
2021/12/27 00:44:34;;;;;;;6.93;4.90;;;8.90;79.20;;;;;;5066926;28;20028;-73
2021/12/27 00:47:00;;;;;;;7.50;4.95;;;9.00;79.40;;;;;;5068143;28;20060;-73
2021/12/27 00:49:27;;;;;;;7.18;4.82;;;8.90;79.40;;;;;;5068539;28;20099;-73
2021/12/27 00:51:53;;;;;;;6.22;5.10;;;8.90;79.40;;;;;;5068454;28;20035;-73
2021/12/27 00:54:19;;;;;;;5.88;4.00;;;9.00;79.60;;;;;;5068584;28;20460;-73
2021/12/27 00:56:46;;;;;;;5.10;4.32;;;8.90;79.40;;;;;;5068380;28;20059;-73
2021/12/27 00:59:12;;;;;;;6.18;4.95;;;8.90;79.40;;;;;;5050508;28;20098;-72
2021/12/27 01:01:38;;;;;;;7.93;4.80;;;8.90;79.40;;;;;;5067614;28;20491;-73
2021/12/27 01:04:05;;;;;;;7.25;4.32;;;8.90;79.40;;;;;;5068591;28;20033;-74
2021/12/27 01:06:31;;;;;;;7.45;4.43;;;8.90;79.40;;;;;;5050812;28;20063;-73
2021/12/27 01:08:58;;;;;;;5.70;4.28;;;8.90;79.40;;;;;;5068883;28;20153;-73
2021/12/27 01:12:25;;;;;;;6.70;4.18;;;8.90;79.40;;;;;;5068344;28;20036;-73
2021/12/27 01:14:13;;;;;;;10.02;4.65;;;8.80;79.20;;;;;;5060719;28;20037;-73
2021/12/27 01:16:42;;;;;;;5.68;4.55;;;8.80;79.20;;;;;;5049711;28;20063;-73
2021/12/27 01:19:08;;;;;;;6.60;4.13;;;8.80;79.20;;;;;;5068199;28;20040;-73
2021/12/27 01:21:35;;;;;;;8.30;4.88;;;8.80;79.20;;;;;;5067970;28;20056;-72
2021/12/27 01:24:03;;;;;;;8.18;4.47;;;8.80;79.20;;;;;;5067805;28;20135;-74
2021/12/27 01:26:29;;;;;;;6.03;4.95;;;8.80;79.20;;;;;;5067052;28;20458;-73
2021/12/27 01:28:56;;;;;;;5.20;4.70;;;8.70;79.10;;;;;;5054272;28;20020;-74
2021/12/27 01:31:23;;;;;;;7.47;4.78;;;8.70;79.10;;;;;;5067694;28;20035;-73
2021/12/27 01:33:49;;;;;;;6.30;4.70;;;8.70;79.60;;;;;;5059359;28;20128;-74
2021/12/27 01:36:15;;;;;;;8.20;5.95;;;8.70;79.10;;;;;;5047483;28;20036;-72
2021/12/27 01:38:42;;;;;;;9.35;4.90;;;8.70;79.10;;;;;;5047690;28;20048;-73
2021/12/27 01:41:11;;;;;;;6.65;5.05;;;8.70;79.20;;;;;;5047629;28;20381;-73
2021/12/27 01:43:38;;;;;;;8.52;5.40;;;8.70;79.10;;;;;;5029657;28;20039;-73
2021/12/27 01:46:10;;;;;;;7.35;5.65;;;8.70;79.20;;;;;;5029791;28;20535;-72
2021/12/27 01:48:40;;;;;;;8.75;4.85;;;8.60;79.00;;;;;;5047380;28;20049;-73
2021/12/27 01:51:09;;;;;;;5.72;4.75;;;8.60;79.00;;;;;;5030238;28;20095;-72
2021/12/27 01:53:37;;;;;;;9.10;5.07;;;8.60;79.00;;;;;;5032027;28;20052;-73
2021/12/27 01:56:06;;;;;;;8.20;5.20;;;8.60;79.00;;;;;;5045654;28;20025;-74
2021/12/27 01:58:33;;;;;;;7.32;5.05;;;8.60;79.00;;;;;;5047125;28;20472;-72
2021/12/27 02:01:01;;;;;;;7.45;5.50;;;8.60;79.00;;;;;;5047575;28;20025;-72
2021/12/27 02:03:29;;;;;;;5.43;4.63;;;8.60;79.10;;;;;;5046900;28;20488;-73
2021/12/27 02:05:56;;;;;;;7.90;5.60;;;8.50;78.90;;;;;;5047260;28;20562;-72
2021/12/27 02:08:22;;;;;;;6.72;5.45;;;8.50;78.90;;;;;;5047296;28;20037;-72
2021/12/27 02:10:51;;;;;;;6.65;5.68;;;8.50;78.90;;;;;;5047091;28;20380;-72
2021/12/27 02:13:18;;;;;;;7.57;4.80;;;8.50;79.00;;;;;;5033352;28;20036;-74
2021/12/27 02:15:45;;;;;;;6.15;5.10;;;8.50;79.00;;;;;;5067010;28;20064;-73
2021/12/27 02:18:11;;;;;;;7.43;5.28;;;8.40;79.30;;;;;;5065234;28;20503;-73
2021/12/27 02:20:39;;;;;;;7.38;5.70;;;8.40;78.80;;;;;;5046268;28;20029;-73
2021/12/27 02:23:12;;;;;;;7.45;5.57;;;8.40;78.80;;;;;;5047037;28;20499;-73
2021/12/27 02:25:38;;;;;;;8.40;5.13;;;8.40;78.80;;;;;;5044834;28;20029;-72
2021/12/27 02:28:08;;;;;;;7.65;5.32;;;8.30;78.60;;;;;;5046777;28;20032;-73
2021/12/27 02:30:35;;;;;;;7.40;5.15;;;8.40;78.80;;;;;;5047487;28;20036;-72
2021/12/27 02:33:05;;;;;;;6.47;5.57;;;8.40;78.80;;;;;;5048121;28;20458;-72
2021/12/27 02:35:38;;;;;;;6.28;5.43;;;8.30;78.70;;;;;;5046831;28;20029;-72
2021/12/27 02:38:07;;;;;;;6.80;5.35;;;8.30;78.70;;;;;;5030390;28;20032;-72
2021/12/27 02:40:34;;;;;;;6.22;5.32;;;8.30;78.70;;;;;;5048280;28;20056;-73
2021/12/27 02:43:02;;;;;;;6.63;5.93;;;8.20;78.50;;;;;;5047980;28;20086;-73
2021/12/27 02:45:29;;;;;;;5.78;5.25;;;8.20;78.50;;;;;;5050952;28;20115;-73
2021/12/27 02:47:56;;;;;;;6.18;5.57;;;8.20;78.50;;;;;;5071145;28;20052;-72
2021/12/27 02:50:23;;;;;;;10.00;5.72;;;8.20;78.50;;;;;;5071696;28;20028;-72
2021/12/27 02:52:49;;;;;;;7.18;5.82;;;8.20;78.50;;;;;;5071131;28;20546;-73
2021/12/27 02:55:17;;;;;;;6.53;5.32;;;8.20;78.50;;;;;;5053573;28;20036;-72
2021/12/27 02:57:47;;;;;;;6.38;5.57;;;8.20;78.60;;;;;;5052933;28;20043;-72
2021/12/27 03:00:16;;;;;;;5.80;5.22;;;8.10;78.40;;;;;;5071071;28;20039;-72
2021/12/27 03:02:44;;;;;;;8.25;6.03;;;8.10;78.40;;;;;;5071236;28;20041;-71
2021/12/27 03:05:11;;;;;;;8.13;5.78;;;8.10;78.40;;;;;;5053455;28;20033;-72
2021/12/27 03:07:39;;;;;;;10.18;6.15;;;8.20;78.70;;;;;;5070679;28;20052;-72
2021/12/27 03:10:07;;;;;;;8.80;6.25;;;8.20;78.60;;;;;;5071212;28;20085;-72
2021/12/27 03:12:33;;;;;;;7.72;6.40;;;8.20;78.60;;;;;;5071280;28;20150;-72
2021/12/27 03:14:59;;;;;;;10.35;6.95;;;8.20;78.60;;;;;;5071346;28;20050;-72
2021/12/27 03:17:25;;;;;;;6.32;5.72;;;8.20;78.50;;;;;;5070877;28;20036;-71
2021/12/27 03:19:51;;;;;;;8.43;6.28;;;8.20;78.50;;;;;;5071238;28;20039;-72
2021/12/27 03:22:17;;;;;;;8.55;6.07;;;8.20;78.50;;;;;;5071140;28;20071;-72
2021/12/27 03:24:43;;;;;;;7.30;6.00;;;8.20;78.60;;;;;;5070744;28;20530;-72
2021/12/27 03:27:09;;;;;;;8.98;5.70;;;8.20;78.50;;;;;;5070225;28;20252;-71
2021/12/27 03:29:35;;;;;;;9.02;6.95;;;8.20;78.60;;;;;;5070825;28;20020;-72
2021/12/27 03:32:02;;;;;;;7.85;6.47;;;8.30;78.80;;;;;;5070962;28;20475;-72
2021/12/27 03:34:31;;;;;;;10.52;7.15;;;8.30;78.70;;;;;;5070484;28;20033;-72
2021/12/27 03:36:57;;;;;;;7.03;6.32;;;8.30;78.80;;;;;;5052871;28;20131;-72
2021/12/27 03:39:23;;;;;;;9.40;6.45;;;8.30;78.70;;;;;;5071628;28;20107;-72
2021/12/27 03:41:49;;;;;;;9.80;7.53;;;8.30;78.80;;;;;;5074701;28;20367;-72
2021/12/27 03:44:15;;;;;;;11.13;7.30;;;8.40;78.90;;;;;;5074498;28;20040;-72
2021/12/27 03:46:41;;;;;;;10.05;6.63;;;8.40;78.90;;;;;;5056913;28;20048;-73
2021/12/27 03:49:07;;;;;;;10.63;6.68;;;8.40;78.90;;;;;;5075158;28;20059;-73
2021/12/27 03:51:33;;;;;;;9.77;6.53;;;8.50;79.10;;;;;;5074651;28;20028;-72
2021/12/27 03:53:59;;;;;;;7.65;6.13;;;8.50;79.10;;;;;;5074815;28;20425;-73
2021/12/27 03:56:27;;;;;;;9.15;6.90;;;8.50;79.10;;;;;;5073666;28;20047;-73
2021/12/27 03:59:07;;;;;;;10.70;6.97;;;8.50;79.10;;;;;;5075010;28;20064;-73
2021/12/27 04:01:34;;;;;;;9.15;7.75;;;8.50;79.10;;;;;;5056664;28;20419;-73
2021/12/27 04:03:59;;;;;;;8.20;6.38;;;8.60;79.20;;;;;;5073218;28;20032;-72
2021/12/27 04:06:27;;;;;;;9.07;6.18;;;8.60;79.20;;;;;;5074376;28;20183;-72
2021/12/27 04:08:53;;;;;;;7.55;6.15;;;8.60;79.20;;;;;;5074204;28;20035;-73
2021/12/27 04:11:19;;;;;;;9.73;6.75;;;8.70;79.40;;;;;;5074384;28;20047;-72
2021/12/27 04:13:45;;;;;;;8.45;6.57;;;8.70;79.40;;;;;;5074300;28;20031;-72
2021/12/27 04:16:11;;;;;;;9.20;7.10;;;8.70;79.40;;;;;;5072971;28;20036;-71
2021/12/27 04:18:38;;;;;;;9.75;6.20;;;8.70;79.40;;;;;;5074547;28;20382;-72
2021/12/27 04:21:04;;;;;;;10.00;6.75;;;8.80;79.50;;;;;;5074353;28;20032;-72
2021/12/27 04:23:30;;;;;;;10.05;7.03;;;8.80;79.50;;;;;;5073984;28;20115;-72
2021/12/27 04:25:56;;;;;;;7.45;6.50;;;8.90;79.60;;;;;;5073424;28;20100;-72
2021/12/27 04:28:22;;;;;;;7.50;5.95;;;8.90;79.60;;;;;;5074219;28;20032;-72
2021/12/27 04:30:48;;;;;;;10.65;6.95;;;8.90;79.60;;;;;;5073888;28;20031;-72
2021/12/27 04:33:14;;;;;;;8.90;6.15;;;8.90;79.60;;;;;;5073947;28;20038;-72
2021/12/27 04:35:41;;;;;;;7.07;5.93;;;9.00;79.70;;;;;;5073862;28;20020;-72
2021/12/27 04:38:07;;;;;;;8.82;5.93;;;9.00;79.70;;;;;;5073623;28;20050;-72
2021/12/27 04:40:36;;;;;;;9.00;6.57;;;9.00;79.70;;;;;;5073808;28;20029;-73
2021/12/27 04:43:08;;;;;;;7.88;6.25;;;9.00;79.70;;;;;;5073739;28;20506;-73
2021/12/27 04:45:34;;;;;;;9.32;5.88;;;9.00;79.70;;;;;;5073753;28;20085;-73
2021/12/27 04:48:01;;;;;;;7.57;5.78;;;9.00;79.60;;;;;;5055114;28;20403;-73
2021/12/27 04:50:27;;;;;;;8.43;6.35;;;9.00;79.60;;;;;;5073279;28;20453;-73
2021/12/27 04:52:54;;;;;;;7.22;6.05;;;9.00;79.60;;;;;;5074080;28;20150;-74
2021/12/27 04:55:24;;;;;;;9.30;6.28;;;9.10;79.80;;;;;;5073419;28;20162;-73
2021/12/27 04:57:51;;;;;;;10.77;6.68;;;9.00;79.70;;;;;;5072842;28;20047;-73
2021/12/27 05:00:17;;;;;;;7.85;6.07;;;9.10;79.80;;;;;;5073391;28;20029;-73
2021/12/27 05:02:43;;;;;;;9.63;6.00;;;9.10;79.80;;;;;;5073240;28;20025;-72
2021/12/27 05:05:09;;;;;;;7.72;5.90;;;9.10;79.90;;;;;;5073466;28;20031;-73
2021/12/27 05:07:35;;;;;;;11.90;6.90;;;9.10;79.80;;;;;;5073657;28;20024;-74
2021/12/27 05:10:05;;;;;;;8.68;6.57;;;9.10;79.90;;;;;;5055207;28;20162;-73
2021/12/27 05:12:31;;;;;;;9.35;6.40;;;9.20;80.10;;;;;;5073497;28;20055;-73
2021/12/27 05:14:57;;;;;;;9.15;6.18;;;9.20;80.00;;;;;;5071951;28;20039;-73
2021/12/27 05:17:23;;;;;;;11.75;6.82;;;9.20;80.50;;;;;;5073031;28;20487;-74
2021/12/27 05:19:49;;;;;;;9.75;6.78;;;9.20;80.00;;;;;;5055032;28;20110;-73
2021/12/27 05:22:15;;;;;;;9.02;6.50;;;9.20;80.00;;;;;;5072928;28;20359;-72
2021/12/27 05:24:41;;;;;;;8.40;5.93;;;9.20;80.00;;;;;;5073232;28;20037;-72
2021/12/27 05:27:09;;;;;;;8.30;6.43;;;9.30;80.10;;;;;;5072986;28;20032;-72
2021/12/27 05:29:36;;;;;;;9.88;6.75;;;9.30;80.10;;;;;;5073038;28;20038;-73
2021/12/27 05:32:03;;;;;;;9.77;5.80;;;9.30;80.10;;;;;;5072958;28;20056;-73
2021/12/27 05:34:29;;;;;;;8.85;6.57;;;9.30;80.10;;;;;;5072717;28;20387;-73
2021/12/27 05:36:56;;;;;;;7.72;6.05;;;9.30;80.10;;;;;;5072555;28;20029;-73
2021/12/27 05:39:22;;;;;;;10.82;6.22;;;9.40;80.20;;;;;;5054999;28;20042;-73
2021/12/27 05:41:49;;;;;;;7.78;6.35;;;9.40;80.20;;;;;;5072654;28;20028;-72
2021/12/27 05:44:16;;;;;;;8.93;6.05;;;9.40;80.20;;;;;;5072909;28;20029;-72
2021/12/27 05:46:43;;;;;;;9.35;6.65;;;9.40;80.20;;;;;;5072208;28;20044;-72
2021/12/27 05:49:09;;;;;;;10.43;6.75;;;9.40;80.20;;;;;;5067326;28;20499;-73
2021/12/27 05:51:36;;;;;;;7.00;6.28;;;9.40;80.20;;;;;;5069520;28;20434;-73
2021/12/27 05:54:05;;;;;;;10.20;7.18;;;9.40;80.20;;;;;;5069581;28;20056;-73
2021/12/27 05:56:31;;;;;;;8.70;6.07;;;9.40;80.20;;;;;;5068853;28;20037;-72
2021/12/27 05:58:57;;;;;;;9.50;6.63;;;9.40;80.20;;;;;;5055149;28;20090;-72
2021/12/27 06:01:23;;;;;;;6.43;5.43;;;9.40;80.20;;;;;;5048364;28;20094;-72
2021/12/27 06:03:49;;;;;;;7.70;6.47;;;9.40;80.20;;;;;;5060070;28;20033;-72
2021/12/27 06:06:15;;;;;;;7.15;6.43;;;9.40;80.20;;;;;;5067469;28;20025;-72
2021/12/27 06:08:42;;;;;;;10.38;7.47;;;9.40;80.20;;;;;;5055304;28;20083;-72
2021/12/27 06:11:08;;;;;;;7.63;6.57;;;9.40;80.20;;;;;;5047048;28;20127;-72
2021/12/27 06:13:34;;;;;;;8.32;6.43;;;9.40;80.20;;;;;;5047154;28;20075;-72
2021/12/27 06:16:00;;;;;;;10.45;7.45;;;9.40;80.20;;;;;;5046944;28;20056;-72
2021/12/27 06:18:26;;;;;;;9.27;6.25;;;9.40;80.20;;;;;;5044152;28;20137;-72
2021/12/27 06:20:52;;;;;;;9.95;6.88;;;9.50;80.30;;;;;;5049014;28;20037;-72
2021/12/27 06:23:18;;;;;;;8.85;6.68;;;9.50;80.30;;;;;;5055038;28;20037;-72
2021/12/27 06:25:44;;;;;;;10.20;6.47;;;9.50;80.30;;;;;;5043188;28;20060;-72
2021/12/27 06:28:11;;;;;;;10.50;7.10;;;9.50;80.30;;;;;;5059029;28;20083;-73
2021/12/27 06:30:37;;;;;;;9.95;7.72;;;9.50;80.30;;;;;;5046846;28;20120;-73
2021/12/27 06:33:03;;;;;;;9.15;7.03;;;9.60;80.40;;;;;;5046309;28;20120;-72
2021/12/27 06:35:29;;;;;;;8.95;7.28;;;9.60;80.30;;;;;;5029184;28;20115;-72
2021/12/27 06:37:55;;;;;;;9.30;6.57;;;9.60;80.30;;;;;;5046202;28;20029;-73
2021/12/27 06:40:21;;;;;;;11.07;6.97;;;9.60;80.30;;;;;;5046936;28;20102;-72
2021/12/27 06:42:47;;;;;;;10.63;7.35;;;9.60;80.30;;;;;;5046649;28;20420;-72
2021/12/27 06:45:13;;;;;;;9.77;7.20;;;9.60;80.20;;;;;;5046098;28;20025;-72
2021/12/27 06:47:40;;;;;;;9.77;6.82;;;9.70;80.40;;;;;;5028315;28;20057;-72
2021/12/27 06:50:07;;;;;;;8.45;6.90;;;9.70;80.40;;;;;;5028550;28;20132;-72
2021/12/27 06:52:34;;;;;;;10.68;7.03;;;9.60;80.20;;;;;;5046875;28;20032;-73
2021/12/27 06:54:59;;;;;;;9.15;7.20;;;9.70;80.40;;;;;;5046501;28;20033;-73
2021/12/27 06:57:25;;;;;;;10.15;7.55;;;9.70;80.30;;;;;;5046095;28;20036;-72
2021/12/27 06:59:51;;;;;;;7.32;6.60;;;9.70;80.30;;;;;;5046062;28;20469;-72
2021/12/27 07:02:18;;;;;;;9.88;7.53;;;9.70;80.30;;;;;;5046160;28;20037;-72
2021/12/27 07:04:44;;;;;;;9.65;7.10;;;9.70;80.30;;;;;;5046227;28;20083;-72
2021/12/27 07:07:10;;;;;;;10.27;7.45;;;9.70;80.30;;;;;;5046318;28;20125;-73
2021/12/27 07:09:36;;;;;;;8.48;6.53;;;9.80;80.40;;;;;;5048160;28;20123;-74
2021/12/27 07:12:03;;;;;;;8.68;7.25;;;9.80;80.40;;;;;;5055295;28;20483;-74
2021/12/27 07:14:29;;;;;;;10.35;7.82;;;9.80;80.40;;;;;;5037462;28;20059;-74
2021/12/27 07:16:55;;;;;;;8.48;6.85;;;9.80;80.40;;;;;;5057331;28;20385;-72
2021/12/27 07:19:20;;;;;;;9.50;6.25;;;9.90;80.50;;;;;;5053507;28;20061;-73
2021/12/27 07:21:46;;;;;;;12.40;7.13;;;9.90;80.40;;;;;;5056346;28;20366;-74
2021/12/27 07:24:12;;;;;;;9.55;7.60;;;9.90;80.40;;;;;;5032493;28;20135;-73
2021/12/27 07:26:39;;;;;;;11.25;7.55;;;10.00;80.50;;;;;;5046123;28;20060;-73
2021/12/27 07:29:05;;;;;;;8.65;6.75;;;10.00;80.50;;;;;;5045416;28;20060;-74
2021/12/27 07:31:30;;;;;;;9.25;7.35;;;10.00;80.40;;;;;;5046861;28;20048;-73
2021/12/27 07:33:57;;;;;;;9.48;7.25;;;10.00;80.40;;;;;;5027904;28;20029;-73
2021/12/27 07:36:23;;;;;;;10.07;6.70;;;10.00;80.30;;;;;;5045522;28;20123;-73
2021/12/27 07:38:49;;;;;;;7.88;6.75;;;10.10;80.50;;;;;;5045484;28;20124;-73
2021/12/27 07:41:15;;;;;;;10.40;7.28;;;10.10;80.40;;;;;;5046212;28;20260;-73
2021/12/27 07:43:41;;;;;;;9.40;7.22;;;10.10;80.40;;;;;;5060098;28;20041;-74
2021/12/27 07:46:07;;;;;;;8.20;6.88;;;10.10;80.40;;;;;;5032796;28;20025;-75
2021/12/27 07:48:33;;;;;;;8.60;6.68;;;10.20;80.60;;;;;;5055163;28;20048;-74
2021/12/27 07:50:59;;;;;;;11.48;7.32;;;10.20;80.60;;;;;;5045824;28;20040;-74
2021/12/27 07:53:25;;;;;;;8.93;6.60;;;10.30;81.30;;;;;;5045603;28;20032;-73
2021/12/27 07:55:51;;;;;;;9.00;7.25;;;10.30;80.70;;;;;;5044658;28;20515;-72
2021/12/27 07:58:17;;;;;;;8.45;6.78;;;10.30;80.70;;;;;;5047838;28;20440;-74
2021/12/27 08:00:43;;;;;;;10.05;7.00;;;10.30;80.70;;;;;;5045937;28;20480;-74
2021/12/27 08:03:09;;;;;;;7.28;6.55;;;10.30;80.70;;;;;;5055857;28;20027;-75
2021/12/27 08:05:35;;;;;;;9.40;6.78;;;10.40;80.80;;;;;;5065472;28;20028;-73
2021/12/27 08:08:01;;;;;;;8.30;6.57;;;10.40;80.80;;;;;;5066673;28;20097;-74
2021/12/27 08:10:28;;;;;;;9.73;7.43;;;10.40;81.10;;;;;;5056301;28;20480;-74
2021/12/27 08:12:55;;;;;;;7.72;6.90;;;10.40;80.80;;;;;;5056847;28;20400;-75
2021/12/27 08:15:22;;;;;;;7.30;6.60;;;10.40;80.70;;;;;;5027314;28;20174;-73
2021/12/27 08:17:48;;;;;;;8.20;7.10;;;10.40;80.70;;;;;;5036356;28;20123;-72
2021/12/27 08:20:14;;;;;;;7.90;6.82;;;10.40;80.70;;;;;;5056425;28;20032;-74
2021/12/27 08:22:40;;;;;;;7.05;6.45;;;10.40;80.70;;;;;;5048064;28;20036;-72
2021/12/27 08:25:07;;;;;;;7.70;7.00;;;10.40;80.70;;;;;;5050566;28;20032;-74
2021/12/27 08:27:36;;;;;;;7.18;6.22;;;10.40;80.70;;;;;;5058661;28;20060;-74
2021/12/27 08:30:05;;;;;;;7.80;6.68;;;10.40;80.70;;;;;;5054661;28;20495;-73
2021/12/27 08:32:32;;;;;;;8.57;7.00;;;10.40;80.70;;;;;;5053491;28;20515;-73
2021/12/27 08:35:01;;;;;;;8.00;6.88;;;10.40;80.70;;;;;;5068677;28;20123;-73
2021/12/27 08:37:31;;;;;;;10.77;7.75;;;10.50;80.80;;;;;;5068367;28;20174;-75
2021/12/27 08:39:58;;;;;;;8.18;7.05;;;10.50;80.80;;;;;;5077207;28;20035;-73
2021/12/27 08:42:24;;;;;;;7.13;6.30;;;10.50;80.70;;;;;;5053691;28;20374;-74
2021/12/27 08:44:51;;;;;;;8.23;6.32;;;10.50;80.70;;;;;;5089812;28;20107;-75
2021/12/27 08:47:17;;;;;;;8.43;7.35;;;10.50;80.70;;;;;;5066948;28;20415;-74
2021/12/27 08:49:43;;;;;;;7.78;7.00;;;10.50;80.70;;;;;;5059977;28;20032;-72
2021/12/27 08:52:10;;;;;;;8.13;6.75;;;10.50;80.60;;;;;;5066249;28;20346;-73
2021/12/27 08:54:36;;;;;;;7.25;6.13;;;10.50;80.50;;;;;;5062942;28;20032;-73
2021/12/27 08:57:04;;;;;;;9.65;7.65;;;10.60;80.70;;;;;;5054794;28;20371;-73
2021/12/27 08:59:30;;;;;;;8.23;7.35;;;10.60;80.60;;;;;;5058110;28;20500;-74
2021/12/27 09:01:56;;;;;;;8.68;6.93;;;10.60;80.60;;;;;;5066737;28;20021;-74
2021/12/27 09:04:23;;;;;;;7.68;6.75;;;10.60;80.60;;;;;;5061422;28;20025;-73
2021/12/27 09:06:49;;;;;;;9.32;7.35;;;10.60;80.50;;;;;;5062362;28;20031;-74
2021/12/27 09:09:15;;;;;;;8.27;6.65;;;10.60;80.50;;;;;;5079585;28;20446;-72
2021/12/27 09:11:42;;;;;;;7.50;6.60;;;10.70;80.70;;;;;;5064358;28;20133;-74
2021/12/27 09:14:08;;;;;;;7.68;6.57;;;10.70;80.70;;;;;;5054031;28;20055;-72
2021/12/27 09:16:34;;;;;;;7.90;7.00;;;10.70;80.70;;;;;;5061195;28;20047;-73
2021/12/27 09:19:00;;;;;;;7.70;7.00;;;10.70;80.60;;;;;;5057853;28;20487;-72
2021/12/27 09:21:26;;;;;;;7.28;6.55;;;10.70;80.60;;;;;;5067532;28;20086;-72
2021/12/27 09:23:52;;;;;;;8.02;7.22;;;10.70;80.60;;;;;;5052040;28;20473;-72
2021/12/27 09:26:18;;;;;;;6.68;6.00;;;10.70;80.60;;;;;;5049868;28;20048;-72
2021/12/27 09:28:44;;;;;;;6.70;6.10;;;10.70;80.60;;;;;;5078427;28;20561;-73
2021/12/27 09:31:10;;;;;;;6.40;5.80;;;10.80;80.70;;;;;;5080492;28;20498;-72
2021/12/27 09:33:36;;;;;;;6.05;5.50;;;10.70;80.50;;;;;;5060624;28;20036;-71
2021/12/27 09:36:03;;;;;;;7.57;5.82;;;10.80;80.70;;;;;;5066300;28;20572;-72
2021/12/27 09:38:29;;;;;;;6.68;5.90;;;10.80;80.60;;;;;;5063970;28;20036;-72
2021/12/27 09:40:55;;;;;;;5.88;5.38;;;10.90;80.70;;;;;;5080212;28;20056;-72
2021/12/27 09:43:23;;;;;;;6.40;5.70;;;10.90;80.60;;;;;;5057065;28;20036;-72
2021/12/27 09:45:49;;;;;;;6.18;5.57;;;11.00;80.70;;;;;;5068477;28;20039;-71
2021/12/27 09:48:15;;;;;;;5.95;5.35;;;11.10;80.80;;;;;;5067608;28;20106;-72
2021/12/27 09:50:54;;;;;;;7.25;5.78;;;11.20;80.80;;;;;;5059849;28;20036;-72
2021/12/27 09:53:20;;;;;;;6.10;5.55;;;11.30;80.80;;;;;;5047236;28;20033;-73
2021/12/27 09:55:46;;;;;;;6.40;4.75;;;11.50;80.90;;;;;;5045961;28;20394;-72
2021/12/27 09:58:12;;;;;;;7.35;5.15;;;11.60;80.80;;;;;;5045177;28;20045;-72
2021/12/27 10:00:41;;;;;;;4.65;4.25;;;11.80;80.80;;;;;;5046997;28;20048;-73
2021/12/27 10:03:10;;;;;;;5.32;4.80;;;11.80;80.60;;;;;;5035403;28;20029;-73
2021/12/27 10:05:37;;;;;;;5.13;4.57;;;12.00;80.70;;;;;;5062563;28;20029;-73
2021/12/27 10:08:03;;;;;;;4.78;4.30;;;12.10;80.70;;;;;;5067244;28;20032;-73
2021/12/27 10:10:34;;;;;;;5.40;4.90;;;12.30;80.70;;;;;;5066868;28;20098;-74
2021/12/27 10:13:06;;;;;;;4.63;4.18;;;12.50;80.70;;;;;;5068035;28;20492;-73
2021/12/27 10:15:37;;;;;;;4.40;3.80;;;12.70;80.60;;;;;;5066665;28;20431;-73
2021/12/27 10:18:14;;;;;;;4.20;3.80;;;12.90;80.50;;;;;;5055423;28;20155;-73
2021/12/27 10:20:42;;;;;;;4.20;3.80;;;13.00;80.30;;;;;;5043728;28;20035;-73
2021/12/27 10:23:12;;;;;;;3.42;3.13;;;13.20;80.40;;;;;;5061021;28;20419;-74
2021/12/27 10:25:39;;;;;;;3.60;3.30;;;13.30;80.20;;;;;;5036263;28;20037;-73
2021/12/27 10:28:05;;;;;;;4.70;3.38;;;13.40;80.10;;;;;;5055550;28;20082;-72
2021/12/27 10:30:35;;;;;;;3.55;2.90;;;13.60;80.20;;;;;;5054871;28;20083;-73
2021/12/27 10:33:14;;;;;;;2.92;2.40;;;13.60;79.90;;;;;;5063666;28;20620;-72
2021/12/27 10:35:46;;;;;;;4.53;3.17;;;13.70;80.00;;;;;;5055507;28;20472;-73
2021/12/27 10:38:20;;;;;;;3.33;2.83;;;13.70;79.90;;;;;;5064682;28;20028;-73
2021/12/27 10:41:03;;;;;;;2.55;2.35;;;13.60;80.20;;;;;;5054607;28;20085;-74
2021/12/27 10:43:39;;;;;;;4.03;2.30;;;13.60;79.70;;;;;;5027690;28;20512;-72
2021/12/27 10:46:17;;;;;;;1.98;1.88;;;13.60;79.80;;;;;;5080405;28;20763;-72
2021/12/27 10:48:54;;;;;;;1.98;1.73;;;13.60;80.00;;;;;;5053826;28;20044;-72
2021/12/27 10:51:20;;;;;;;2.17;1.60;;;13.60;80.20;;;;;;5056653;28;20031;-73
2021/12/27 10:53:50;;;;;;;1.95;1.85;;;13.60;80.20;;;;;;5054843;28;20040;-72
2021/12/27 10:56:18;;;;;;;2.50;1.80;;;13.60;80.20;;;;;;5064363;28;20028;-72
2021/12/27 10:58:52;;;;;;;2.33;1.50;;;13.60;80.10;;;;;;5055449;28;20082;-74
2021/12/27 11:01:19;;;;;;;1.88;1.50;;;13.60;80.00;;;;;;5062357;28;20058;-74
2021/12/27 11:03:51;;;;;;;2.28;1.50;;;13.60;80.10;;;;;;5051622;28;20025;-74
2021/12/27 11:06:26;;;;;;;2.42;1.55;;;13.60;80.00;;;;;;5046295;28;20071;-73
2021/12/27 11:08:53;;;;;;;2.45;1.50;;;13.50;79.80;;;;;;5051198;28;20051;-73
2021/12/27 11:11:22;;;;;;;4.97;1.20;;;13.60;80.00;;;;;;5063978;28;20058;-73
2021/12/27 11:13:50;;;;;;;1.20;0.95;;;13.60;80.30;;;;;;5056993;28;20036;-72
2021/12/27 11:16:17;;;;;;;1.27;1.00;;;13.60;80.60;;;;;;5066211;28;20044;-74
2021/12/27 11:18:43;;;;;;;2.00;1.05;;;13.80;81.00;;;;;;5047939;28;20036;-74
2021/12/27 11:21:10;;;;;;;5.20;1.30;;;14.00;81.10;;;;;;5027929;28;20456;-73
2021/12/27 11:23:37;;;;;;;4.20;1.10;;;14.10;81.10;;;;;;5056242;28;20532;-74
2021/12/27 11:26:14;;;;;;;2.13;0.80;;;14.10;81.00;;;;;;5064602;28;20071;-74
2021/12/27 11:28:42;;;;;;;1.60;1.00;;;14.20;81.20;;;;;;5065841;28;20071;-73
2021/12/27 11:31:28;;;;;;;2.00;1.25;;;14.20;81.10;;;;;;5056481;28;20086;-73
2021/12/27 11:34:00;;;;;;;6.93;2.60;;;14.20;81.20;;;;;;5054064;28;20537;-74
2021/12/27 11:36:32;;;;;;;4.30;1.30;;;14.20;81.30;;;;;;5036916;28;20543;-73
2021/12/27 11:39:16;;;;;;;3.55;1.35;;;14.10;81.20;;;;;;5050959;28;20055;-74
2021/12/27 11:41:42;;;;;;;3.92;0.90;;;14.10;81.30;;;;;;5064041;28;20376;-73
2021/12/27 11:44:17;;;;;;;1.95;0.93;;;14.00;81.20;;;;;;5045227;28;20067;-74
2021/12/27 11:46:49;;;;;;;2.20;0.95;;;14.00;81.40;;;;;;5056970;28;20033;-74
2021/12/27 11:49:17;;;;;;;2.92;1.10;;;14.00;81.40;;;;;;5075070;28;20025;-74
2021/12/27 11:51:46;;;;;;;2.63;1.20;;;13.90;81.40;;;;;;5064271;28;20508;-74
2021/12/27 11:54:31;;;;;;;1.02;0.75;;;13.80;81.30;;;;;;5045040;28;20036;-75
2021/12/27 11:56:57;;;;;;;1.45;0.80;;;13.80;81.40;;;;;;5046239;28;20025;-75
2021/12/27 11:59:36;;;;;;;1.35;0.80;;;13.70;81.30;;;;;;5047615;28;20507;-74
2021/12/27 12:02:23;;;;;;;1.95;1.00;;;13.60;81.20;;;;;;5050200;28;20032;-74
2021/12/27 12:04:53;;;;;;;1.48;0.68;;;13.60;81.30;;;;;;5040099;28;20578;-73
2021/12/27 12:07:34;;;;;;;2.47;0.90;;;13.50;81.20;;;;;;5069973;28;20032;-73
2021/12/27 12:10:05;;;;;;;1.45;0.60;;;13.50;81.30;;;;;;5086727;28;20121;-73
2021/12/27 12:12:33;;;;;;;2.78;0.98;;;13.50;81.40;;;;;;5081827;28;20378;-74
2021/12/27 12:15:01;;;;;;;10.48;5.40;;;13.40;81.30;;;;;;5053793;28;20052;-72
2021/12/27 12:17:41;;;;;;;25.55;12.30;;;13.40;81.30;;;;;;5069279;28;20549;-73
2021/12/27 12:20:25;;;;;;;18.40;8.52;;;13.40;81.30;;;;;;5068721;28;20499;-74
2021/12/27 12:23:08;;;;;;;16.98;7.88;;;13.40;81.30;;;;;;5068769;28;20119;-73
2021/12/27 12:25:36;;;;;;;21.60;11.07;;;13.50;81.40;;;;;;5069156;28;20051;-74
2021/12/27 12:28:11;;;;;;;18.55;8.93;;;13.50;81.40;;;;;;5040659;28;20032;-73
2021/12/27 12:30:45;;;;;;;19.92;10.68;;;13.50;81.30;;;;;;5047590;28;20032;-75
2021/12/27 12:33:15;;;;;;;20.75;9.55;;;13.60;81.40;;;;;;5047434;28;20033;-73
2021/12/27 12:35:41;;;;;;;14.73;7.88;;;13.70;81.40;;;;;;5048779;28;20037;-74
2021/12/27 12:38:22;;;;;;;14.98;10.07;;;13.80;81.30;;;;;;5033783;28;20052;-72
2021/12/27 12:41:10;;;;;;;19.02;8.40;;;13.90;81.30;;;;;;5058207;28;20342;-74
2021/12/27 12:43:42;;;;;;;14.65;7.90;;;13.90;81.10;;;;;;5052850;28;20491;-72
2021/12/27 12:46:14;;;;;;;15.13;7.90;;;14.00;81.10;;;;;;5081146;28;20046;-74
2021/12/27 12:48:40;;;;;;;15.95;7.38;;;14.20;81.20;;;;;;5061266;28;20038;-73
2021/12/27 12:51:07;;;;;;;17.00;7.70;;;14.30;81.10;;;;;;5061643;28;20099;-74
2021/12/27 12:53:34;;;;;;;17.92;7.97;;;14.40;80.90;;;;;;5063262;28;20039;-76